Time;durP1;ratioP1;P1;durP2;ratioP2;P2;SDS_P1;SDS_P2;PMS_P1;PMS_P2;Temp;Humidity;BMP_temperature;BMP_pressure;BME280_temperature;BME280_humidity;BME280_pressure;Samples;Min_cycle;Max_cycle;Signal;HPM_P1;HPM_P2
2023/03/23 00:00:23;;;;;;;;;;;10.40;99.90;;;;;;5092193;28;1152;-75
2023/03/23 00:02:49;;;;;;;;;;;10.30;99.90;;;;;;5110815;28;1128;-76
2023/03/23 00:05:15;;;;;;;;;;;10.30;99.90;;;;;;5111574;28;1100;-75
2023/03/23 00:07:44;;;;;;;;;;;10.40;99.90;;;;;;5110451;28;1171;-75
2023/03/23 00:10:10;;;;;;;;;;;10.40;99.90;;;;;;5111513;28;1093;-76
2023/03/23 00:12:36;;;;;;;;;;;10.40;99.90;;;;;;5110467;28;1984;-76
2023/03/23 00:15:03;;;;;;;;;;;10.30;99.90;;;;;;5092018;28;1320;-76
2023/03/23 00:17:29;;;;;;;;;;;10.20;99.90;;;;;;5092816;28;1122;-76
2023/03/23 00:19:55;;;;;;;;;;;10.40;99.90;;;;;;5110042;28;1077;-76
2023/03/23 00:22:21;;;;;;;;;;;10.30;99.90;;;;;;5092269;28;1307;-76
2023/03/23 00:24:47;;;;;;;;;;;10.40;99.90;;;;;;5092913;28;1113;-77
2023/03/23 00:27:14;;;;;;;;;;;10.50;99.90;;;;;;5092993;27;1100;-76
2023/03/23 00:29:42;;;;;;;;;;;10.20;99.90;;;;;;5120373;27;1141;-77
2023/03/23 00:32:12;;;;;;;;;;;10.60;99.90;;;;;;5110682;28;1159;-77
2023/03/23 00:34:40;;;;;;;;;;;10.30;99.90;;;;;;5109835;28;1970;-77
2023/03/23 00:37:07;;;;;;;;;;;10.30;99.90;;;;;;5111932;27;1183;-77
2023/03/23 00:39:33;;;;;;;;;;;10.40;99.90;;;;;;5137147;27;1200;-77
2023/03/23 00:42:05;;;;;;;;;;;10.50;99.90;;;;;;5111371;27;1603;-78
2023/03/23 00:44:31;;;;;;;;;;;10.60;99.90;;;;;;5130709;27;1096;-79
2023/03/23 00:46:57;;;;;;;;;;;10.60;99.90;;;;;;5140756;27;1146;-79
2023/03/23 00:49:25;;;;;;;;;;;10.70;99.90;;;;;;5125616;27;1104;-79
2023/03/23 00:51:52;;;;;;;;;;;10.70;99.90;;;;;;5091626;28;1105;-79
2023/03/23 00:54:18;;;;;;;;;;;10.90;99.90;;;;;;5091909;28;1919;-79
2023/03/23 00:56:44;;;;;;;;;;;10.60;99.90;;;;;;5104073;27;1149;-79
2023/03/23 00:59:10;;;;;;;;;;;10.60;99.90;;;;;;5146679;27;1104;-79
2023/03/23 01:01:35;;;;;;;;;;;10.50;99.90;;;;;;5112006;27;1139;-79
2023/03/23 01:04:03;;;;;;;;;;;10.60;99.90;;;;;;5084599;28;1561;-79
2023/03/23 01:06:30;;;;;;;;;;;10.70;99.90;;;;;;5091778;28;1027;-78
2023/03/23 01:08:57;;;;;;;;;;;10.50;99.90;;;;;;5091489;28;1132;-78
2023/03/23 01:11:24;;;;;;;;;;;10.50;99.90;;;;;;5109953;28;1116;-78
2023/03/23 01:13:50;;;;;;;;;;;10.50;99.90;;;;;;5078843;28;1917;-75
2023/03/23 01:16:16;;;;;;;;;;;10.60;99.90;;;;;;5093517;28;1199;-76
2023/03/23 01:18:42;;;;;;;;;;;10.60;99.90;;;;;;5091703;28;1149;-78
2023/03/23 01:21:10;;;;;;;;;;;10.10;99.90;;;;;;5091013;28;1919;-78
2023/03/23 01:23:36;;;;;;;;;;;10.20;99.90;;;;;;5086088;28;1154;-79
2023/03/23 01:26:03;;;;;;;;;;;10.10;99.90;;;;;;5074860;28;1133;-79
2023/03/23 01:28:29;;;;;;;;;;;9.50;99.90;;;;;;5121357;27;1118;-80
2023/03/23 01:30:59;;;;;;;;;;;9.80;99.90;;;;;;5106902;28;1167;-79
2023/03/23 01:33:24;;;;;;;;;;;9.80;99.90;;;;;;5109775;28;1905;-80
2023/03/23 01:35:50;;;;;;;;;;;9.60;99.90;;;;;;5090712;28;1673;-80
2023/03/23 01:38:17;;;;;;;;;;;9.80;99.90;;;;;;5131838;27;1055;-79
2023/03/23 01:40:43;;;;;;;;;;;9.80;99.90;;;;;;5097117;28;1314;-79
2023/03/23 01:43:12;;;;;;;;;;;9.30;99.90;;;;;;5108471;28;1184;-79
2023/03/23 01:45:39;;;;;;;;;;;9.40;99.90;;;;;;5117237;27;1172;-80
2023/03/23 01:48:16;;;;;;;;;;;9.30;99.90;;;;;;5100684;28;1283;-79
2023/03/23 01:50:46;;;;;;;;;;;9.30;99.90;;;;;;5133039;27;1139;-79
2023/03/23 01:53:12;;;;;;;;;;;9.50;99.90;;;;;;5106156;28;1901;-79
2023/03/23 01:55:40;;;;;;;;;;;9.60;99.90;;;;;;5100080;28;1283;-79
2023/03/23 01:58:06;;;;;;;;;;;9.70;99.90;;;;;;5090122;28;1122;-79
2023/03/23 02:00:33;;;;;;;;;;;9.70;99.90;;;;;;5091482;28;1167;-79
2023/03/23 02:03:00;;;;;;;;;;;10.00;99.90;;;;;;5074219;28;1209;-79
2023/03/23 02:05:29;;;;;;;;;;;10.00;99.90;;;;;;5090248;28;1515;-79
2023/03/23 02:08:02;;;;;;;;;;;10.00;99.90;;;;;;5097943;28;1169;-79
2023/03/23 02:10:30;;;;;;;;;;;10.00;99.90;;;;;;5116340;28;1258;-79
2023/03/23 02:12:57;;;;;;;;;;;10.00;99.90;;;;;;5132854;27;1971;-79
2023/03/23 02:15:25;;;;;;;;;;;10.10;99.90;;;;;;5081159;28;1290;-79
2023/03/23 02:17:57;;;;;;;;;;;10.10;99.90;;;;;;5090837;28;1164;-79
2023/03/23 02:20:33;;;;;;;;;;;10.10;99.90;;;;;;5073214;28;1097;-79
2023/03/23 02:23:02;;;;;;;;;;;9.90;99.90;;;;;;5073436;28;1297;-78
2023/03/23 02:25:37;;;;;;;;;;;10.00;99.90;;;;;;5079134;28;1304;-79
2023/03/23 02:28:29;;;;;;;;;;;10.00;99.90;;;;;;5078374;28;1111;-79
2023/03/23 02:30:59;;;;;;;;;;;10.10;99.90;;;;;;5109031;28;1092;-79
2023/03/23 02:33:35;;;;;;;;;;;10.20;99.90;;;;;;5108061;28;1977;-79
2023/03/23 02:36:07;;;;;;;;;;;10.20;99.90;;;;;;5124063;28;1186;-79
2023/03/23 02:38:35;;;;;;;;;;;10.10;99.90;;;;;;5125105;28;1213;-79
2023/03/23 02:41:02;;;;;;;;;;;10.10;99.90;;;;;;5106900;28;1635;-79
2023/03/23 02:43:31;;;;;;;;;;;10.10;99.90;;;;;;5089627;28;1224;-79
2023/03/23 02:45:57;;;;;;;;;;;10.20;99.90;;;;;;5073949;28;1420;-79
2023/03/23 02:48:26;;;;;;;;;;;10.20;99.90;;;;;;5089845;28;1093;-79
2023/03/23 02:50:52;;;;;;;;;;;10.00;99.90;;;;;;5108313;28;1085;-79
2023/03/23 02:53:21;;;;;;;;;;;10.10;99.90;;;;;;5111758;28;1926;-78
2023/03/23 02:55:52;;;;;;;;;;;10.20;99.90;;;;;;5093711;28;1551;-79
2023/03/23 02:58:21;;;;;;;;;;;10.10;99.90;;;;;;5077006;28;1264;-79
2023/03/23 03:00:49;;;;;;;;;;;10.10;99.90;;;;;;5098104;28;1142;-79
2023/03/23 03:03:17;;;;;;;;;;;10.20;99.90;;;;;;5093671;28;1124;-78
2023/03/23 03:05:51;;;;;;;;;;;10.10;99.90;;;;;;5090426;28;1140;-78
2023/03/23 03:08:35;;;;;;;;;;;10.10;99.90;;;;;;5110498;28;1183;-78
2023/03/23 03:11:04;;;;;;;;;;;10.00;99.90;;;;;;5128073;27;1238;-78
2023/03/23 03:13:35;;;;;;;;;;;10.20;99.90;;;;;;5093871;28;1921;-78
2023/03/23 03:16:11;;;;;;;;;;;10.00;99.90;;;;;;5093306;28;1109;-78
2023/03/23 03:18:42;;;;;;;;;;;10.20;99.90;;;;;;5132833;27;1149;-78
2023/03/23 03:21:10;;;;;;;;;;;10.10;99.90;;;;;;5111018;28;1394;-79
2023/03/23 03:23:37;;;;;;;;;;;10.10;99.90;;;;;;5093484;28;1164;-79
2023/03/23 03:26:05;;;;;;;;;;;10.10;99.90;;;;;;5089212;28;1093;-79
2023/03/23 03:28:41;;;;;;;;;;;10.00;99.90;;;;;;5121992;27;1085;-79
2023/03/23 03:31:08;;;;;;;;;;;10.20;99.90;;;;;;5109792;28;1087;-79
2023/03/23 03:33:33;;;;;;;;;;;10.30;99.90;;;;;;5111556;28;1914;-80
2023/03/23 03:36:02;;;;;;;;;;;10.10;99.90;;;;;;5116837;27;1225;-80
2023/03/23 03:38:28;;;;;;;;;;;10.20;99.90;;;;;;5124786;27;1191;-80
2023/03/23 03:40:55;;;;;;;;;;;10.30;99.90;;;;;;5123930;27;1548;-79
2023/03/23 03:43:22;;;;;;;;;;;10.30;99.90;;;;;;5117755;27;1264;-80
2023/03/23 03:45:48;;;;;;;;;;;10.30;99.90;;;;;;5090180;28;1152;-80
2023/03/23 03:48:14;;;;;;;;;;;10.10;99.90;;;;;;5090024;28;1239;-80
2023/03/23 03:50:40;;;;;;;;;;;10.20;99.90;;;;;;5091010;28;1159;-80
2023/03/23 03:53:06;;;;;;;;;;;10.10;99.90;;;;;;5064665;28;1922;-80
2023/03/23 03:55:35;;;;;;;;;;;10.20;99.90;;;;;;5091296;28;1147;-80
2023/03/23 03:58:04;;;;;;;;;;;10.20;99.90;;;;;;5072127;28;1117;-80
2023/03/23 04:00:49;;;;;;;;;;;10.10;99.90;;;;;;5089555;28;1266;-80
2023/03/23 04:03:20;;;;;;;;;;;10.40;99.90;;;;;;5088889;28;1268;-80
2023/03/23 04:05:59;;;;;;;;;;;10.30;99.90;;;;;;5068885;28;1081;-80
2023/03/23 04:08:26;;;;;;;;;;;10.30;99.90;;;;;;5088860;28;1328;-80
2023/03/23 04:10:53;;;;;;;;;;;10.30;99.90;;;;;;5088755;28;1101;-80
2023/03/23 04:13:20;;;;;;;;;;;10.30;99.90;;;;;;5090412;28;1890;-79
2023/03/23 04:15:46;;;;;;;;;;;10.10;99.90;;;;;;5090201;28;1089;-78
2023/03/23 04:18:14;;;;;;;;;;;10.00;99.90;;;;;;5089482;28;1089;-77
2023/03/23 04:20:41;;;;;;;;;;;9.90;99.90;;;;;;5088039;28;1134;-77
2023/03/23 04:23:07;;;;;;;;;;;9.90;99.90;;;;;;5090429;28;1671;-76
2023/03/23 04:25:35;;;;;;;;;;;10.00;99.90;;;;;;5090017;28;1120;-76
2023/03/23 04:28:01;;;;;;;;;;;9.90;99.90;;;;;;5086801;28;1086;-76
2023/03/23 04:30:33;;;;;;;;;;;10.00;99.90;;;;;;5067088;28;1161;-76
2023/03/23 04:33:02;;;;;;;;;;;9.90;99.90;;;;;;5089460;28;1997;-77
2023/03/23 04:35:29;;;;;;;;;;;9.90;99.90;;;;;;5088773;28;1083;-77
2023/03/23 04:38:09;;;;;;;;;;;9.60;99.90;;;;;;5099301;28;1177;-77
2023/03/23 04:40:37;;;;;;;;;;;9.90;99.90;;;;;;5087341;28;1525;-78
2023/03/23 04:43:14;;;;;;;;;;;10.00;99.90;;;;;;5084197;28;1155;-77
2023/03/23 04:45:55;;;;;;;;;;;10.00;99.90;;;;;;5103396;28;1163;-78
2023/03/23 04:48:23;;;;;;;;;;;9.10;99.90;;;;;;5089151;28;1159;-78
2023/03/23 04:51:00;;;;;;;;;;;9.00;99.90;;;;;;5089164;28;1093;-76
2023/03/23 04:53:29;;;;;;;;;;;8.90;99.90;;;;;;5089052;28;1981;-76
2023/03/23 04:55:55;;;;;;;;;;;8.70;99.90;;;;;;5097091;28;1142;-76
2023/03/23 04:58:23;;;;;;;;;;;8.70;99.90;;;;;;5109351;28;1159;-76
2023/03/23 05:01:01;;;;;;;;;;;8.80;99.90;;;;;;5108779;28;1116;-76
2023/03/23 05:03:28;;;;;;;;;;;8.90;99.90;;;;;;5103442;28;1406;-77
2023/03/23 05:05:55;;;;;;;;;;;8.80;99.90;;;;;;5085301;28;970;-77
2023/03/23 05:08:24;;;;;;;;;;;9.10;99.90;;;;;;5070496;28;1228;-76
2023/03/23 05:10:52;;;;;;;;;;;8.90;99.90;;;;;;5088497;28;1109;-76
2023/03/23 05:13:17;;;;;;;;;;;9.00;99.90;;;;;;5070715;28;1914;-76
2023/03/23 05:15:48;;;;;;;;;;;8.60;99.90;;;;;;5086629;28;1140;-76
2023/03/23 05:18:14;;;;;;;;;;;9.00;99.90;;;;;;5088033;28;1121;-76
2023/03/23 05:20:41;;;;;;;;;;;9.00;99.90;;;;;;5070987;28;1298;-76
2023/03/23 05:23:12;;;;;;;;;;;9.30;99.90;;;;;;5119330;27;1576;-76
2023/03/23 05:25:40;;;;;;;;;;;9.10;99.90;;;;;;5089079;28;1096;-76
2023/03/23 05:28:13;;;;;;;;;;;9.00;99.90;;;;;;5079653;28;1091;-76
2023/03/23 05:30:51;;;;;;;;;;;9.30;99.90;;;;;;5095001;28;997;-76
2023/03/23 05:33:18;;;;;;;;;;;9.40;99.90;;;;;;5070419;28;1996;-76
2023/03/23 05:36:00;;;;;;;;;;;9.20;99.90;;;;;;5087042;28;1092;-76
2023/03/23 05:38:31;;;;;;;;;;;9.10;99.90;;;;;;5099533;28;1182;-76
2023/03/23 05:41:00;;;;;;;;;;;9.30;99.90;;;;;;5071222;28;1324;-76
2023/03/23 05:43:30;;;;;;;;;;;9.40;99.90;;;;;;5119325;27;1389;-76
2023/03/23 05:46:18;;;;;;;;;;;9.50;99.90;;;;;;5109558;28;1178;-76
2023/03/23 05:48:45;;;;;;;;;;;9.40;99.90;;;;;;5081908;28;1140;-76
2023/03/23 05:51:15;;;;;;;;;;;9.50;99.90;;;;;;5107564;28;1116;-76
2023/03/23 05:53:43;;;;;;;;;;;9.30;99.90;;;;;;5108330;28;1918;-76
2023/03/23 05:56:11;;;;;;;;;;;9.40;99.90;;;;;;5105646;28;1214;-76
2023/03/23 05:59:02;;;;;;;;;;;9.80;99.90;;;;;;5076168;28;1087;-77
2023/03/23 06:01:29;;;;;;;;;;;9.70;99.90;;;;;;5087676;28;1156;-76
2023/03/23 06:03:58;;;;;;;;;;;9.60;99.90;;;;;;5104495;28;1724;-77
2023/03/23 06:06:31;;;;;;;;;;;9.70;99.90;;;;;;5070138;28;1097;-77
2023/03/23 06:09:04;;;;;;;;;;;9.50;99.90;;;;;;5070613;28;1141;-77
2023/03/23 06:11:48;;;;;;;;;;;9.40;99.90;;;;;;5070152;28;1153;-77
2023/03/23 06:14:31;;;;;;;;;;;9.50;99.90;;;;;;5070051;28;1914;-77
2023/03/23 06:16:57;;;;;;;;;;;9.50;99.90;;;;;;5087371;28;1128;-77
2023/03/23 06:19:26;;;;;;;;;;;9.30;99.90;;;;;;5086917;28;1113;-78
2023/03/23 06:21:59;;;;;;;;;;;9.20;99.90;;;;;;5087433;28;1272;-78
2023/03/23 06:24:44;;;;;;;;;;;9.50;99.90;;;;;;5088294;28;1225;-78
2023/03/23 06:27:13;;;;;;;;;;;9.60;99.90;;;;;;5090116;28;1112;-78
2023/03/23 06:29:41;;;;;;;;;;;9.40;99.90;;;;;;5111974;28;1136;-78
2023/03/23 06:32:10;;;;;;;;;;;9.70;99.90;;;;;;5104419;28;1167;-77
2023/03/23 06:34:36;;;;;;;;;;;9.90;99.90;;;;;;5091636;28;1914;-78
2023/03/23 06:37:20;;;;;;;;;;;9.50;99.90;;;;;;5096351;28;1116;-78
2023/03/23 06:40:04;;;;;;;;;;;9.60;99.90;;;;;;5093520;28;1100;-78
2023/03/23 06:42:36;;;;;;;;;;;9.80;99.90;;;;;;5061291;28;1267;-78
2023/03/23 06:45:34;;;;;;;;;;;9.60;99.90;;;;;;5091547;28;1172;-79
2023/03/23 06:48:21;;;;;;;;;;;9.70;99.90;;;;;;5090492;28;1121;-79
2023/03/23 06:50:47;;;;;;;;;;;9.70;99.90;;;;;;5090668;28;1193;-80
2023/03/23 06:53:16;;;;;;;;;;;9.90;99.90;;;;;;5089907;28;1984;-80
2023/03/23 06:55:43;;;;;;;;;;;9.70;99.90;;;;;;5091081;28;1183;-80
2023/03/23 06:58:10;;;;;;;;;;;9.70;99.90;;;;;;5091846;28;1131;-80
2023/03/23 07:00:36;;;;;;;;;;;9.70;99.90;;;;;;5124589;27;1099;-81
2023/03/23 07:03:03;;;;;;;;;;;9.80;99.90;;;;;;5073882;28;1148;-82
2023/03/23 07:05:30;;;;;;;;;;;9.50;99.90;;;;;;5087284;28;1207;-81
2023/03/23 07:07:55;;;;;;;;;;;9.20;99.90;;;;;;5092011;28;1097;-82
2023/03/23 07:10:31;;;;;;;;;;;9.30;99.90;;;;;;5110911;28;1170;-81
2023/03/23 07:12:57;;;;;;;;;;;9.00;99.90;;;;;;5112048;28;1981;-81
2023/03/23 07:15:24;;;;;;;;;;;9.10;99.90;;;;;;5109981;28;1108;-80
2023/03/23 07:17:54;;;;;;;;;;;8.70;99.90;;;;;;5091659;28;1177;-81
2023/03/23 07:20:27;;;;;;;;;;;9.10;99.90;;;;;;5074153;28;1093;-81
2023/03/23 07:22:54;;;;;;;;;;;8.80;99.90;;;;;;5090552;28;1299;-80
2023/03/23 07:25:33;;;;;;;;;;;8.80;99.90;;;;;;5064873;28;1123;-80
2023/03/23 07:28:00;;;;;;;;;;;8.80;99.90;;;;;;5097617;28;1102;-80
2023/03/23 07:30:28;;;;;;;;;;;8.80;99.90;;;;;;5109922;28;1116;-80
2023/03/23 07:32:54;;;;;;;;;;;8.90;99.90;;;;;;5110525;28;1984;-80
2023/03/23 07:35:20;;;;;;;;;;;8.90;99.90;;;;;;5127616;27;1113;-80
2023/03/23 07:37:54;;;;;;;;;;;9.10;99.90;;;;;;5098093;28;1167;-80
2023/03/23 07:40:21;;;;;;;;;;;9.10;99.90;;;;;;5108543;28;1381;-80
2023/03/23 07:42:52;;;;;;;;;;;9.30;99.90;;;;;;5072005;28;1231;-81
2023/03/23 07:45:26;;;;;;;;;;;9.30;99.90;;;;;;5090113;28;1166;-80
2023/03/23 07:47:53;;;;;;;;;;;9.60;99.90;;;;;;5090427;28;1155;-80
2023/03/23 07:50:26;;;;;;;;;;;9.60;99.90;;;;;;5094618;28;1112;-81
2023/03/23 07:52:54;;;;;;;;;;;9.70;99.90;;;;;;5077272;28;1910;-81
2023/03/23 07:55:21;;;;;;;;;;;10.20;99.90;;;;;;5089521;28;1168;-81
2023/03/23 07:58:00;;;;;;;;;;;10.30;99.90;;;;;;5095089;28;1303;-81
2023/03/23 08:00:28;;;;;;;;;;;10.40;99.90;;;;;;5084919;28;1105;-81
2023/03/23 08:02:56;;;;;;;;;;;10.70;99.90;;;;;;5083656;28;1479;-81
2023/03/23 08:05:33;;;;;;;;;;;10.90;99.90;;;;;;5085765;28;1140;-80
2023/03/23 08:08:30;;;;;;;;;;;10.60;99.90;;;;;;5075636;28;1073;-81
2023/03/23 08:11:15;;;;;;;;;;;10.70;99.90;;;;;;5090356;28;1233;-81
2023/03/23 08:14:05;;;;;;;;;;;10.80;99.90;;;;;;5072735;28;1906;-80
2023/03/23 08:16:42;;;;;;;;;;;11.00;99.90;;;;;;5089084;28;1081;-81
2023/03/23 08:19:11;;;;;;;;;;;10.80;99.90;;;;;;5089808;28;1143;-81
2023/03/23 08:22:01;;;;;;;;;;;11.10;99.90;;;;;;5090364;28;1378;-81
2023/03/23 08:24:40;;;;;;;;;;;10.80;99.90;;;;;;5088562;28;1187;-80
2023/03/23 08:27:16;;;;;;;;;;;11.20;99.90;;;;;;5088767;28;1325;-80
2023/03/23 08:30:11;;;;;;;;;;;11.10;99.90;;;;;;5088264;28;1269;-80
2023/03/23 08:32:52;;;;;;;;;;;11.00;99.90;;;;;;5114259;27;1984;-80
2023/03/23 08:35:53;;;;;;;;;;;10.90;99.90;;;;;;5083796;28;1128;-80
2023/03/23 08:38:30;;;;;;;;;;;11.30;99.90;;;;;;5083493;28;1104;-80
2023/03/23 08:41:15;;;;;;;;;;;11.10;99.90;;;;;;5091248;28;1580;-80
2023/03/23 08:44:13;;;;;;;;;;;11.10;99.90;;;;;;5096321;28;1210;-81
2023/03/23 08:47:04;;;;;;;;;;;11.30;99.90;;;;;;5091958;28;1021;-81
2023/03/23 08:49:45;;;;;;;;;;;11.30;99.90;;;;;;5088750;28;3665;-81
2023/03/23 08:52:26;;;;;;;;;;;11.20;99.90;;;;;;5084157;28;3305;-81
2023/03/23 08:55:15;;;;;;;;;;;10.90;99.90;;;;;;5103008;28;3496;-81
2023/03/23 08:57:52;;;;;;;;;;;11.20;99.90;;;;;;5117235;27;1131;-81
2023/03/23 09:00:34;;;;;;;;;;;11.20;99.90;;;;;;5119754;27;1323;-81
2023/03/23 09:03:13;;;;;;;;;;;11.20;99.90;;;;;;5105430;27;1368;-81
2023/03/23 09:05:53;;;;;;;;;;;11.10;99.90;;;;;;5091524;28;1332;-81
2023/03/23 09:08:32;;;;;;;;;;;11.20;99.90;;;;;;5104380;28;3035;-81
2023/03/23 09:10:59;;;;;;;;;;;11.30;99.90;;;;;;5093781;28;1164;-81
2023/03/23 09:13:25;;;;;;;;;;;11.80;99.90;;;;;;5092945;28;1969;-81
2023/03/23 09:15:51;;;;;;;;;;;11.60;99.90;;;;;;5103284;28;1196;-81
2023/03/23 09:18:18;;;;;;;;;;;11.60;99.90;;;;;;5103920;28;1505;-81
2023/03/23 09:20:44;;;;;;;;;;;11.30;99.90;;;;;;5106490;28;1179;-81
2023/03/23 09:23:09;;;;;;;;;;;11.50;99.90;;;;;;5088250;28;1600;-82
2023/03/23 09:25:35;;;;;;;;;;;11.60;99.90;;;;;;5102551;28;1153;-81
2023/03/23 09:28:01;;;;;;;;;;;11.40;99.90;;;;;;5106045;28;1201;-81
2023/03/23 09:30:28;;;;;;;;;;;11.40;99.90;;;;;;5102648;28;1137;-80
2023/03/23 09:32:54;;;;;;;;;;;11.50;99.90;;;;;;5098776;28;1913;-80
2023/03/23 09:35:21;;;;;;;;;;;11.50;99.90;;;;;;5105956;28;1256;-80
2023/03/23 09:37:48;;;;;;;;;;;11.70;99.90;;;;;;5092717;28;1739;-80
2023/03/23 09:40:18;;;;;;;;;;;11.70;99.90;;;;;;5100773;28;1624;-80
2023/03/23 09:42:44;;;;;;;;;;;12.00;99.90;;;;;;5102899;28;1410;-81
2023/03/23 09:45:19;;;;;;;;;;;11.90;99.90;;;;;;5118887;27;1588;-80
2023/03/23 09:47:45;;;;;;;;;;;12.30;99.90;;;;;;5105235;28;1396;-80
2023/03/23 09:50:15;;;;;;;;;;;12.20;99.90;;;;;;5105210;28;1189;-80
2023/03/23 09:52:41;;;;;;;;;;;;;;;;;;5096228;28;1197;-80
2023/03/23 09:55:11;;;;;;;;;;;12.50;99.90;;;;;;5105674;28;1910;-80
2023/03/23 09:57:43;;;;;;;;;;;12.50;99.90;;;;;;5097995;28;1193;-80
2023/03/23 10:00:09;;;;;;;;;;;12.40;99.90;;;;;;5096408;28;1082;-80
2023/03/23 10:02:55;;;;;;;;;;;12.40;99.90;;;;;;5110839;27;1266;-80
2023/03/23 10:05:30;;;;;;;;;;;12.30;99.90;;;;;;5106880;28;1310;-80
2023/03/23 10:07:55;;;;;;;;;;;12.50;99.90;;;;;;5108280;28;1180;-80
2023/03/23 10:10:25;;;;;;;;;;;12.60;99.90;;;;;;5085496;28;1241;-80
2023/03/23 10:12:54;;;;;;;;;;;12.80;99.90;;;;;;5109885;28;1969;-81
2023/03/23 10:15:23;;;;;;;;;;;12.80;99.90;;;;;;5106264;28;1098;-80
2023/03/23 10:17:52;;;;;;;;;;;12.80;99.90;;;;;;5109587;28;1229;-80
2023/03/23 10:20:30;;;;;;;;;;;13.00;99.90;;;;;;5094934;28;1196;-81
2023/03/23 10:22:57;;;;;;;;;;;13.60;99.90;;;;;;5109750;28;1267;-81
2023/03/23 10:25:25;;;;;;;;;;;13.90;99.90;;;;;;5126010;27;1228;-81
2023/03/23 10:28:07;;;;;;;;;;;13.80;99.90;;;;;;5101811;28;1306;-80
2023/03/23 10:30:36;;;;;;;;;;;13.70;99.90;;;;;;5102865;28;1177;-81
2023/03/23 10:33:04;;;;;;;;;;;13.70;99.90;;;;;;5112203;28;1910;-80
2023/03/23 10:35:43;;;;;;;;;;;14.10;99.90;;;;;;5112731;28;1122;-80
2023/03/23 10:38:09;;;;;;;;;;;;;;;;;;5128853;27;1090;-81
2023/03/23 10:40:38;;;;;;;;;;;14.40;99.90;;;;;;5104449;28;1322;-80
2023/03/23 10:43:04;;;;;;;;;;;14.40;99.90;;;;;;5124182;27;1175;-80
2023/03/23 10:45:32;;;;;;;;;;;14.50;99.90;;;;;;5133031;27;1131;-80
2023/03/23 10:48:04;;;;;;;;;;;14.40;99.90;;;;;;5115047;27;1167;-80
2023/03/23 10:50:35;;;;;;;;;;;14.50;99.90;;;;;;5089377;28;1077;-80
2023/03/23 10:53:03;;;;;;;;;;;14.80;99.90;;;;;;5104831;28;1972;-80
2023/03/23 10:55:37;;;;;;;;;;;14.60;99.90;;;;;;5112807;28;1092;-80
2023/03/23 10:58:04;;;;;;;;;;;15.40;99.90;;;;;;5111728;28;1179;-79
2023/03/23 11:00:31;;;;;;;;;;;15.10;99.90;;;;;;5111963;28;1140;-80
2023/03/23 11:02:57;;;;;;;;;;;14.40;99.90;;;;;;5112485;28;1167;-79
2023/03/23 11:05:24;;;;;;;;;;;14.50;99.90;;;;;;5112380;28;1331;-79
2023/03/23 11:07:51;;;;;;;;;;;15.00;99.90;;;;;;5109043;28;1118;-79
2023/03/23 11:10:25;;;;;;;;;;;15.00;99.90;;;;;;5094055;28;1101;-79
2023/03/23 11:12:52;;;;;;;;;;;14.50;99.90;;;;;;5110947;28;2006;-80
2023/03/23 11:15:27;;;;;;;;;;;14.80;99.90;;;;;;5078448;28;1056;-79
2023/03/23 11:18:00;;;;;;;;;;;15.10;99.90;;;;;;5130348;27;1218;-80
2023/03/23 11:20:28;;;;;;;;;;;15.10;99.90;;;;;;5114334;27;1148;-79
2023/03/23 11:22:54;;;;;;;;;;;14.80;99.90;;;;;;5132399;27;1147;-80
2023/03/23 11:25:20;;;;;;;;;;;14.80;99.90;;;;;;5111980;28;1206;-79
2023/03/23 11:27:46;;;;;;;;;;;14.70;99.90;;;;;;5116984;27;1124;-79
2023/03/23 11:30:22;;;;;;;;;;;14.50;99.90;;;;;;5148870;27;1095;-79
2023/03/23 11:32:49;;;;;;;;;;;14.60;99.90;;;;;;5127295;27;1139;-79
2023/03/23 11:35:16;;;;;;;;;;;14.50;99.90;;;;;;5110611;28;1107;-79
2023/03/23 11:37:43;;;;;;;;;;;15.00;99.90;;;;;;5094098;28;1171;-79
2023/03/23 11:40:11;;;;;;;;;;;15.90;99.90;;;;;;5112007;28;1207;-79
2023/03/23 11:42:55;;;;;;;;;;;16.10;99.90;;;;;;5110291;28;1124;-79
2023/03/23 11:45:27;;;;;;;;;;;15.80;99.90;;;;;;5111475;28;1088;-79
2023/03/23 11:47:53;;;;;;;;;;;15.50;99.90;;;;;;5111921;28;1195;-79
2023/03/23 11:50:24;;;;;;;;;;;14.80;99.90;;;;;;5109929;28;1084;-79
2023/03/23 11:52:56;;;;;;;;;;;15.30;99.90;;;;;;5111661;28;1913;-79
2023/03/23 11:55:25;;;;;;;;;;;15.10;99.90;;;;;;5111659;28;1129;-79
2023/03/23 11:57:51;;;;;;;;;;;15.20;99.90;;;;;;5110444;28;1167;-79
2023/03/23 12:00:18;;;;;;;;;;;14.90;99.90;;;;;;5092609;28;1136;-79
2023/03/23 12:02:52;;;;;;;;;;;15.00;99.90;;;;;;5092632;28;1085;-79
2023/03/23 12:05:45;;;;;;;;;;;15.60;99.90;;;;;;5090666;28;1129;-79
2023/03/23 12:08:23;;;;;;;;;;;15.70;99.90;;;;;;5108412;28;1081;-79
2023/03/23 12:10:56;;;;;;;;;;;15.60;99.90;;;;;;5092359;28;1152;-79
2023/03/23 12:13:23;;;;;;;;;;;15.30;99.90;;;;;;5092660;28;1921;-78
2023/03/23 12:15:52;;;;;;;;;;;15.30;99.90;;;;;;5090041;28;3606;-78
2023/03/23 12:18:24;;;;;;;;;;;15.30;99.90;;;;;;5102670;28;3516;-78
2023/03/23 12:20:50;;;;;;;;;;;15.90;99.90;;;;;;5107000;28;3572;-78
2023/03/23 12:23:22;;;;;;;;;;;16.80;99.90;;;;;;5100400;28;1635;-79
2023/03/23 12:25:58;;;;;;;;;;;17.30;98.80;;;;;;5090942;27;1398;-79
2023/03/23 12:28:31;;;;;;;;;;;17.70;98.30;;;;;;5117640;27;1137;-79
2023/03/23 12:31:09;;;;;;;;;;;17.80;99.90;;;;;;5109964;28;1168;-79
2023/03/23 12:33:36;;;;;;;;;;;18.00;99.90;;;;;;5110756;28;1981;-79
2023/03/23 12:36:11;;;;;;;;;;;17.80;99.90;;;;;;5109866;28;1249;-79
2023/03/23 12:38:42;;;;;;;;;;;17.90;96.60;;;;;;5125079;27;1123;-79
2023/03/23 12:41:08;;;;;;;;;;;17.70;99.90;;;;;;5122287;27;1634;-79
2023/03/23 12:43:40;;;;;;;;;;;17.60;99.90;;;;;;5110038;28;1088;-80
2023/03/23 12:46:10;;;;;;;;;;;17.70;99.80;;;;;;5119755;27;1102;-79
2023/03/23 12:48:39;;;;;;;;;;;18.20;98.20;;;;;;5130748;27;1151;-79
2023/03/23 12:51:13;;;;;;;;;;;18.00;99.90;;;;;;5131201;27;1178;-79
2023/03/23 12:53:47;;;;;;;;;;;17.70;96.80;;;;;;5096268;28;1977;-79
2023/03/23 12:56:20;;;;;;;;;;;17.40;99.90;;;;;;5109689;28;1101;-79
2023/03/23 12:58:47;;;;;;;;;;;17.40;98.20;;;;;;5110494;28;1085;-79
2023/03/23 13:01:21;;;;;;;;;;;17.30;97.20;;;;;;5109313;28;1159;-79
2023/03/23 13:03:51;;;;;;;;;;;17.30;99.90;;;;;;5109972;28;1112;-79
2023/03/23 13:06:17;;;;;;;;;;;17.80;98.80;;;;;;5110034;27;1089;-79
2023/03/23 13:08:48;;;;;;;;;;;17.80;99.00;;;;;;5109294;28;1298;-79
2023/03/23 13:11:18;;;;;;;;;;;17.30;98.80;;;;;;5108647;28;1302;-77
2023/03/23 13:13:50;;;;;;;;;;;16.70;99.90;;;;;;5100057;28;1989;-76
2023/03/23 13:16:25;;;;;;;;;;;16.20;99.90;;;;;;5106848;27;3795;-77
2023/03/23 13:19:09;;;;;;;;;;;16.20;99.90;;;;;;5121102;27;3339;-76
2023/03/23 13:21:41;;;;;;;;;;;15.70;99.90;;;;;;5101395;28;3488;-76
2023/03/23 13:24:09;;;;;;;;;;;15.50;99.90;;;;;;5102742;28;1122;-76
2023/03/23 13:26:40;;;;;;;;;;;15.60;99.90;;;;;;5101604;28;1193;-76
2023/03/23 13:29:08;;;;;;;;;;;15.50;99.90;;;;;;5101649;28;1194;-76
2023/03/23 13:31:36;;;;;;;;;;;14.70;99.90;;;;;;5105030;28;1169;-76
2023/03/23 13:34:12;;;;;;;;;;;14.30;99.90;;;;;;5120265;27;3145;-76
2023/03/23 13:36:39;;;;;;;;;;;14.00;99.90;;;;;;5123947;27;1187;-77
2023/03/23 13:39:08;;;;;;;;;;;13.80;99.90;;;;;;5071791;28;1199;-76
2023/03/23 13:41:45;;;;;;;;;;;14.00;99.90;;;;;;5099444;28;1422;-77
2023/03/23 13:44:18;;;;;;;;;;;13.80;99.90;;;;;;5105124;28;1402;-76
2023/03/23 13:46:54;;;;;;;;;;;14.00;99.90;;;;;;5103601;28;1241;-76
2023/03/23 13:49:22;;;;;;;;;;;15.00;99.90;;;;;;5103051;28;1212;-76
2023/03/23 13:51:52;;;;;;;;;;;14.60;99.90;;;;;;5102412;28;1107;-76
2023/03/23 13:54:22;;;;;;;;;;;14.70;99.90;;;;;;5102092;28;1913;-76
2023/03/23 13:56:56;;;;;;;;;;;14.90;99.90;;;;;;5104890;28;1184;-76
2023/03/23 13:59:33;;;;;;;;;;;15.30;99.90;;;;;;5109655;28;1096;-76
2023/03/23 14:02:26;;;;;;;;;;;16.40;99.90;;;;;;5091074;28;1092;-76
2023/03/23 14:04:52;;;;;;;;;;;16.30;99.90;;;;;;5108194;28;1262;-76
2023/03/23 14:07:19;;;;;;;;;;;15.30;99.90;;;;;;5109569;28;1215;-76
2023/03/23 14:09:46;;;;;;;;;;;15.20;99.90;;;;;;5108739;28;1092;-76
2023/03/23 14:12:17;;;;;;;;;;;15.50;99.90;;;;;;5089847;28;1317;-76
2023/03/23 14:14:46;;;;;;;;;;;16.60;99.90;;;;;;5073634;28;1981;-76
2023/03/23 14:17:21;;;;;;;;;;;17.50;99.50;;;;;;5108599;28;1092;-76
2023/03/23 14:19:48;;;;;;;;;;;17.60;98.90;;;;;;5109490;28;1120;-76
2023/03/23 14:22:20;;;;;;;;;;;16.90;99.90;;;;;;5093609;28;1243;-76
2023/03/23 14:24:46;;;;;;;;;;;15.60;99.90;;;;;;5090009;28;1068;-76
2023/03/23 14:27:15;;;;;;;;;;;15.00;99.90;;;;;;5109215;28;1171;-76
2023/03/23 14:29:41;;;;;;;;;;;14.50;99.90;;;;;;5110879;28;1094;-76
2023/03/23 14:32:10;;;;;;;;;;;14.70;99.90;;;;;;5090079;28;1120;-76
2023/03/23 14:34:36;;;;;;;;;;;15.60;99.90;;;;;;5090825;28;1910;-76
2023/03/23 14:37:02;;;;;;;;;;;16.50;99.90;;;;;;5110514;28;1175;-76
2023/03/23 14:39:29;;;;;;;;;;;16.80;99.90;;;;;;5115740;28;1130;-77
2023/03/23 14:41:55;;;;;;;;;;;17.00;97.50;;;;;;5110185;28;1406;-76
2023/03/23 14:44:24;;;;;;;;;;;17.20;98.00;;;;;;5110139;28;1198;-76
2023/03/23 14:46:49;;;;;;;;;;;17.00;99.30;;;;;;5124301;27;1162;-76
2023/03/23 14:49:17;;;;;;;;;;;17.00;97.60;;;;;;5112520;28;1145;-76
2023/03/23 14:51:51;;;;;;;;;;;16.60;99.00;;;;;;5112362;28;1104;-76
2023/03/23 14:54:21;;;;;;;;;;;16.80;99.90;;;;;;5094057;28;1917;-77